createdAt,value
2022-12-24T00:01:38.289Z,3.88
2022-12-24T00:04:07.196Z,3.77
2022-12-24T00:06:35.875Z,3.74
2022-12-24T00:09:05.538Z,3.69
2022-12-24T00:11:36.385Z,3.70
2022-12-24T00:14:05.897Z,3.74
2022-12-24T00:16:34.516Z,3.80
2022-12-24T00:19:02.788Z,3.62
2022-12-24T00:21:31.743Z,3.61
2022-12-24T00:24:00.567Z,3.54
2022-12-24T00:26:29.239Z,3.47
2022-12-24T00:28:59.628Z,3.42
2022-12-24T00:31:28.273Z,3.35
2022-12-24T00:33:56.866Z,3.32
2022-12-24T00:36:25.483Z,3.37
2022-12-24T00:38:55.846Z,3.43
2022-12-24T00:41:29.547Z,3.52
2022-12-24T00:46:51.423Z,3.51
2022-12-24T00:49:20.822Z,3.59
2022-12-24T00:51:49.108Z,3.49
2022-12-24T00:54:17.423Z,3.55
2022-12-24T00:56:46.314Z,3.51
2022-12-24T00:59:16.218Z,3.50
2022-12-24T01:01:44.564Z,3.40
2022-12-24T01:04:26.766Z,3.52
2022-12-24T01:06:56.123Z,3.66
2022-12-24T01:09:24.632Z,3.71
2022-12-24T01:11:53.049Z,3.53
2022-12-24T01:14:22.743Z,3.51
2022-12-24T01:16:51.020Z,3.59
2022-12-24T01:19:19.378Z,3.57
2022-12-24T01:21:47.887Z,3.58
2022-12-24T01:24:16.771Z,3.42
2022-12-24T01:26:45.100Z,3.26
2022-12-24T01:29:13.491Z,3.16
2022-12-24T01:31:43.223Z,3.24
2022-12-24T01:34:12.578Z,3.18
2022-12-24T01:36:40.948Z,3.46
2022-12-24T01:39:09.593Z,3.42
2022-12-24T01:41:55.711Z,3.23
2022-12-24T01:44:31.546Z,3.03
2022-12-24T01:47:10.406Z,3.00
2022-12-24T01:49:40.545Z,2.97
2022-12-24T01:52:11.250Z,3.18
2022-12-24T01:54:42.399Z,3.15
2022-12-24T01:57:12.799Z,3.15
2022-12-24T01:59:43.722Z,3.23
2022-12-24T02:02:14.038Z,3.37
2022-12-24T02:04:45.990Z,3.25
2022-12-24T02:07:14.852Z,3.31
2022-12-24T02:09:43.361Z,3.41
2022-12-24T02:12:11.688Z,3.54
2022-12-24T02:14:40.234Z,3.39
2022-12-24T02:17:15.687Z,3.47
2022-12-24T02:20:27.577Z,3.21
2022-12-24T02:23:11.158Z,3.24
2022-12-24T02:25:59.948Z,3.29
2022-12-24T02:28:44.301Z,3.40
2022-12-24T02:31:18.163Z,3.21
2022-12-24T02:33:49.344Z,3.27
2022-12-24T02:36:22.337Z,3.10
2022-12-24T02:38:52.267Z,3.08
2022-12-24T02:41:23.956Z,3.22
2022-12-24T02:43:54.816Z,2.99
2022-12-24T02:46:26.889Z,2.96
2022-12-24T02:48:55.364Z,2.82
2022-12-24T02:51:25.517Z,2.68
2022-12-24T02:53:53.967Z,2.56
2022-12-24T02:56:41.279Z,2.36
2022-12-24T02:59:31.169Z,2.35
2022-12-24T03:02:10.155Z,2.40
2022-12-24T03:04:46.070Z,2.25
2022-12-24T03:07:18.832Z,2.25
2022-12-24T03:10:08.284Z,2.19
2022-12-24T03:12:39.644Z,2.08
2022-12-24T03:15:10.125Z,2.02
2022-12-24T03:17:42.238Z,1.93
2022-12-24T03:20:12.814Z,1.93
2022-12-24T03:22:41.560Z,1.92
2022-12-24T03:25:10.487Z,1.75
2022-12-24T03:27:39.805Z,1.72
2022-12-24T03:30:12.581Z,1.66
2022-12-24T03:32:42.687Z,1.72
2022-12-24T03:35:11.763Z,1.89
2022-12-24T03:37:40.317Z,1.96
2022-12-24T03:40:10.082Z,1.77
2022-12-24T03:42:38.414Z,1.91
2022-12-24T03:45:08.212Z,1.80
2022-12-24T03:47:37.268Z,1.76
2022-12-24T03:50:09.078Z,1.71
2022-12-24T03:52:37.650Z,1.57
2022-12-24T03:55:07.286Z,1.69
2022-12-24T03:57:35.561Z,2.08
2022-12-24T04:00:04.859Z,1.87
2022-12-24T04:02:41.466Z,2.00
2022-12-24T04:05:15.928Z,1.97
2022-12-24T04:07:44.473Z,1.85
2022-12-24T04:10:15.312Z,1.80
2022-12-24T04:12:43.696Z,1.99
2022-12-24T04:15:12.401Z,1.76
2022-12-24T04:17:40.740Z,1.79
2022-12-24T04:20:12.403Z,1.65
2022-12-24T04:22:42.216Z,1.67
2022-12-24T04:25:11.588Z,1.65
2022-12-24T04:27:39.885Z,1.63
2022-12-24T04:30:09.534Z,1.65
2022-12-24T04:32:37.993Z,1.76
2022-12-24T04:35:06.808Z,1.76
2022-12-24T04:37:36.636Z,1.73
2022-12-24T04:40:05.438Z,1.58
2022-12-24T04:42:33.734Z,1.38
2022-12-24T04:45:02.067Z,1.32
2022-12-24T04:47:30.562Z,1.96
2022-12-24T04:49:59.319Z,1.81
2022-12-24T04:52:27.787Z,1.55
2022-12-24T04:54:57.441Z,1.73
2022-12-24T04:57:25.816Z,1.47
2022-12-24T04:59:54.107Z,1.37
2022-12-24T05:02:23.092Z,1.53
2022-12-24T05:04:51.799Z,1.73
2022-12-24T05:07:20.120Z,1.36
2022-12-24T05:09:48.803Z,1.24
2022-12-24T05:12:18.948Z,1.20
2022-12-24T05:14:47.407Z,1.28
2022-12-24T05:17:18.872Z,1.60
2022-12-24T05:19:47.154Z,1.52
2022-12-24T05:22:33.296Z,1.52
2022-12-24T05:25:19.003Z,1.64
2022-12-24T05:27:51.286Z,1.58
2022-12-24T05:30:20.246Z,1.59
2022-12-24T05:32:48.589Z,1.72
2022-12-24T05:35:17.044Z,1.49
2022-12-24T05:37:45.398Z,2.09
2022-12-24T05:40:13.926Z,1.73
2022-12-24T05:42:42.252Z,1.46
2022-12-24T05:45:12.591Z,1.23
2022-12-24T05:47:43.395Z,1.20
2022-12-24T05:50:12.685Z,1.07
2022-12-24T05:52:40.998Z,1.10
2022-12-24T05:55:10.354Z,1.15
2022-12-24T05:57:38.785Z,1.25
2022-12-24T06:00:09.662Z,1.34
2022-12-24T06:02:41.970Z,1.19
2022-12-24T06:05:10.737Z,0.87
2022-12-24T06:07:39.007Z,0.99
2022-12-24T06:10:09.023Z,0.79
2022-12-24T06:12:37.270Z,0.88
2022-12-24T06:15:07.357Z,0.95
2022-12-24T06:17:35.691Z,0.91
2022-12-24T06:20:05.928Z,0.84
2022-12-24T06:22:34.266Z,0.82
2022-12-24T06:25:02.710Z,0.74
2022-12-24T06:27:31.724Z,0.89
2022-12-24T06:30:00.232Z,0.73
2022-12-24T06:32:28.528Z,0.94
2022-12-24T06:34:57.005Z,0.88
2022-12-24T06:37:28.562Z,0.84
2022-12-24T06:39:57.056Z,1.60
2022-12-24T06:42:26.743Z,1.16
2022-12-24T06:44:55.008Z,1.23
2022-12-24T06:47:23.340Z,1.13
2022-12-24T06:49:52.139Z,0.84
2022-12-24T06:52:20.474Z,0.76
2022-12-24T06:54:50.344Z,0.60
2022-12-24T06:57:19.295Z,0.59
2022-12-24T06:59:48.152Z,0.51
2022-12-24T07:02:16.714Z,0.48
2022-12-24T07:04:45.291Z,0.60
2022-12-24T07:07:13.672Z,0.74
2022-12-24T07:09:42.105Z,0.98
2022-12-24T07:12:12.465Z,1.19
2022-12-24T07:14:42.639Z,1.51
2022-12-24T07:17:11.247Z,1.18
2022-12-24T07:19:39.741Z,1.33
2022-12-24T07:22:15.069Z,1.39
2022-12-24T07:24:44.480Z,1.45
2022-12-24T07:27:14.235Z,1.45
2022-12-24T07:29:42.728Z,1.44
2022-12-24T07:32:11.384Z,1.45
2022-12-24T07:34:40.818Z,1.87
2022-12-24T07:37:09.233Z,2.03
2022-12-24T07:39:37.579Z,2.08
2022-12-24T07:42:08.231Z,1.97
2022-12-24T07:44:39.161Z,2.27
2022-12-24T07:47:07.689Z,2.28
2022-12-24T07:49:36.514Z,2.46
2022-12-24T07:52:05.193Z,2.38
2022-12-24T07:54:33.796Z,2.26
2022-12-24T07:57:02.396Z,2.26
2022-12-24T07:59:30.754Z,2.32
2022-12-24T08:02:00.853Z,2.31
2022-12-24T08:04:29.872Z,2.32
2022-12-24T08:06:58.223Z,2.36
2022-12-24T08:09:27.000Z,2.38
2022-12-24T08:11:55.313Z,2.47
2022-12-24T08:14:24.032Z,2.60
2022-12-24T08:16:52.503Z,2.67
2022-12-24T08:19:23.560Z,2.87
2022-12-24T08:21:52.159Z,2.70
2022-12-24T08:24:20.883Z,2.84
2022-12-24T08:26:49.324Z,2.82
2022-12-24T08:29:17.773Z,3.01
2022-12-24T08:31:46.517Z,3.04
2022-12-24T08:34:15.195Z,3.05
2022-12-24T08:36:45.021Z,3.56
2022-12-24T08:39:14.602Z,3.20
2022-12-24T08:41:43.303Z,3.04
2022-12-24T08:44:12.075Z,3.25
2022-12-24T08:46:40.553Z,3.41
2022-12-24T08:49:08.914Z,3.47
2022-12-24T08:51:39.053Z,3.56
2022-12-24T08:54:09.529Z,3.53
2022-12-24T08:56:38.072Z,3.73
2022-12-24T08:59:06.631Z,3.90
2022-12-24T09:01:35.186Z,3.91
2022-12-24T09:04:04.057Z,3.95
2022-12-24T09:06:33.719Z,3.92
2022-12-24T09:09:02.972Z,4.15
2022-12-24T09:11:34.996Z,4.13
2022-12-24T09:14:05.016Z,4.12
2022-12-24T09:16:33.514Z,3.94
2022-12-24T09:19:02.092Z,3.92
2022-12-24T09:21:30.606Z,3.84
2022-12-24T09:24:00.531Z,3.83
2022-12-24T09:26:30.193Z,3.54
2022-12-24T09:29:01.078Z,3.39
2022-12-24T09:31:31.293Z,3.22
2022-12-24T09:33:59.582Z,3.10
2022-12-24T09:36:29.178Z,3.14
2022-12-24T09:38:57.645Z,3.04
2022-12-24T09:41:35.153Z,3.11
2022-12-24T09:44:09.859Z,3.17
2022-12-24T09:46:41.242Z,3.30
2022-12-24T09:49:14.247Z,3.43
2022-12-24T09:51:44.289Z,3.62
2022-12-24T09:54:17.602Z,4.06
2022-12-24T09:56:47.876Z,4.09
2022-12-24T09:59:19.611Z,4.40
2022-12-24T10:01:48.621Z,4.82
2022-12-24T10:04:18.415Z,4.57
2022-12-24T10:06:56.387Z,4.16
2022-12-24T10:09:32.226Z,4.39
2022-12-24T10:12:07.211Z,4.37
2022-12-24T10:14:47.410Z,4.82
2022-12-24T10:17:26.776Z,5.50
2022-12-24T10:20:01.479Z,5.97
2022-12-24T10:22:35.825Z,6.42
2022-12-24T10:25:08.300Z,6.15
2022-12-24T10:27:39.869Z,6.71
2022-12-24T10:30:17.545Z,7.13
2022-12-24T10:32:47.033Z,7.40
2022-12-24T10:35:21.940Z,7.82
2022-12-24T10:37:52.713Z,7.95
2022-12-24T10:40:29.392Z,8.05
2022-12-24T10:42:57.700Z,8.02
2022-12-24T10:45:39.421Z,8.24
2022-12-24T10:48:12.589Z,8.42
2022-12-24T10:50:43.834Z,9.29
2022-12-24T10:53:17.377Z,9.47
2022-12-24T10:55:46.023Z,9.66
2022-12-24T10:58:17.647Z,10.19
2022-12-24T11:00:51.728Z,10.43
2022-12-24T11:03:24.751Z,10.25
2022-12-24T11:06:06.891Z,9.78
2022-12-24T11:08:35.600Z,9.87
2022-12-24T11:11:05.532Z,9.98
2022-12-24T11:13:38.362Z,9.79
2022-12-24T11:16:14.464Z,10.02
2022-12-24T11:18:51.323Z,10.39
2022-12-24T11:21:22.273Z,11.33
2022-12-24T11:23:53.299Z,11.65
2022-12-24T11:26:26.959Z,11.83
2022-12-24T11:29:16.698Z,12.33
2022-12-24T11:31:47.303Z,12.11
2022-12-24T11:34:29.735Z,11.99
2022-12-24T11:37:14.470Z,12.00
2022-12-24T11:39:46.669Z,12.14
2022-12-24T11:42:26.857Z,11.03
2022-12-24T11:44:57.160Z,10.53
2022-12-24T11:47:36.445Z,10.04
2022-12-24T11:50:27.046Z,9.50
2022-12-24T11:53:00.735Z,9.20
2022-12-24T11:55:37.398Z,9.24
2022-12-24T11:58:16.057Z,8.71
2022-12-24T12:00:45.352Z,8.60
2022-12-24T12:03:30.135Z,8.55
2022-12-24T12:06:01.319Z,8.50
2022-12-24T12:08:30.515Z,8.24
2022-12-24T12:11:00.326Z,8.10
2022-12-24T12:13:33.417Z,8.06
2022-12-24T12:16:11.844Z,7.96
2022-12-24T12:18:43.588Z,8.23
2022-12-24T12:21:19.107Z,8.89
2022-12-24T12:23:52.604Z,9.62
2022-12-24T12:26:28.946Z,10.15
2022-12-24T12:29:02.635Z,10.17
2022-12-24T12:31:35.261Z,10.10
2022-12-24T12:34:12.037Z,9.97
2022-12-24T12:36:45.968Z,9.99
2022-12-24T12:39:16.712Z,9.96
2022-12-24T12:41:57.134Z,10.20
2022-12-24T12:44:51.395Z,9.72
2022-12-24T12:47:54.901Z,9.65
2022-12-24T12:50:35.426Z,9.62
2022-12-24T12:53:30.862Z,9.48
2022-12-24T12:56:06.187Z,9.34
2022-12-24T12:58:39.453Z,9.36
2022-12-24T13:01:27.231Z,9.44
2022-12-24T13:04:40.510Z,9.38
2022-12-24T13:07:35.991Z,9.34
2022-12-24T13:10:42.535Z,9.66
2022-12-24T13:13:33.866Z,9.56
2022-12-24T13:16:20.200Z,9.58
2022-12-24T13:19:00.620Z,9.55
2022-12-24T13:21:32.409Z,9.52
2022-12-24T13:24:28.087Z,9.90
2022-12-24T13:27:08.411Z,9.50
2022-12-24T13:29:53.967Z,9.45
2022-12-24T13:32:56.815Z,9.31
2022-12-24T13:35:37.525Z,9.23
2022-12-24T13:38:45.303Z,9.22
2022-12-24T13:42:01.230Z,9.37
2022-12-24T13:44:36.351Z,9.64
2022-12-24T13:47:33.400Z,9.47
2022-12-24T13:50:22.754Z,9.27
2022-12-24T13:52:53.775Z,9.15
2022-12-24T13:55:25.283Z,9.06
2022-12-24T13:58:00.167Z,9.08
2022-12-24T14:00:45.541Z,9.13
2022-12-24T14:03:24.812Z,9.16
2022-12-24T14:05:58.232Z,9.04
2022-12-24T14:08:32.135Z,8.80
2022-12-24T14:11:08.720Z,8.88
2022-12-24T14:14:13.904Z,9.01
2022-12-24T14:16:48.532Z,9.06
2022-12-24T14:19:23.601Z,8.81
2022-12-24T14:21:59.130Z,8.59
2022-12-24T14:24:34.297Z,8.50
2022-12-24T14:27:15.060Z,8.44
2022-12-24T14:29:50.511Z,8.38
2022-12-24T14:32:21.870Z,8.32
2022-12-24T14:35:30.915Z,8.19
2022-12-24T14:38:12.725Z,8.05
2022-12-24T14:40:50.852Z,8.15
2022-12-24T14:43:26.500Z,7.97
2022-12-24T14:46:05.173Z,7.86
2022-12-24T14:48:41.885Z,7.76
2022-12-24T14:51:15.296Z,7.57
2022-12-24T14:53:59.423Z,7.54
2022-12-24T14:56:29.788Z,7.40
2022-12-24T14:59:04.715Z,7.43
2022-12-24T15:01:35.460Z,7.78
2022-12-24T15:04:15.859Z,7.38
2022-12-24T15:06:51.877Z,7.07
2022-12-24T15:09:26.381Z,7.19
2022-12-24T15:11:58.889Z,6.96
2022-12-24T15:14:31.336Z,6.76
2022-12-24T15:17:04.473Z,6.66
2022-12-24T15:19:39.199Z,6.54
2022-12-24T15:22:15.086Z,6.41
2022-12-24T15:24:55.458Z,6.43
2022-12-24T15:27:30.292Z,6.34
2022-12-24T15:30:01.987Z,6.16
2022-12-24T15:32:33.881Z,6.09
2022-12-24T15:35:05.381Z,6.03
2022-12-24T15:37:38.351Z,5.94
2022-12-24T15:40:11.807Z,5.97
2022-12-24T15:42:43.278Z,6.07
2022-12-24T15:45:19.103Z,5.89
2022-12-24T15:47:54.009Z,5.68
2022-12-24T15:50:29.370Z,5.72
2022-12-24T15:53:19.283Z,5.71
2022-12-24T15:56:07.490Z,5.48
2022-12-24T15:58:38.611Z,5.30
2022-12-24T16:01:30.622Z,5.43
2022-12-24T16:04:13.880Z,5.58
2022-12-24T16:06:56.979Z,5.36
2022-12-24T16:10:15.141Z,5.00
2022-12-24T16:12:49.090Z,5.05
2022-12-24T16:15:20.077Z,4.86
2022-12-24T16:17:54.341Z,5.02
2022-12-24T16:20:30.447Z,5.03
2022-12-24T16:23:03.756Z,4.94
2022-12-24T16:25:35.573Z,4.98
2022-12-24T16:28:22.192Z,5.12
2022-12-24T16:31:01.651Z,5.09
2022-12-24T16:33:34.561Z,5.09
2022-12-24T16:36:12.355Z,5.00
2022-12-24T16:39:06.048Z,4.77
2022-12-24T16:41:56.170Z,4.50
2022-12-24T16:44:25.230Z,4.46
2022-12-24T16:46:59.308Z,4.31
2022-12-24T16:49:31.067Z,4.32
2022-12-24T16:52:00.877Z,4.19
2022-12-24T16:54:35.597Z,4.28
2022-12-24T16:57:06.451Z,4.75
2022-12-24T16:59:39.840Z,4.49
2022-12-24T17:02:14.326Z,4.56
2022-12-24T17:04:52.322Z,4.56
2022-12-24T17:07:25.259Z,4.20
2022-12-24T17:10:03.255Z,3.95
2022-12-24T17:12:34.538Z,4.06
2022-12-24T17:15:07.723Z,4.13
2022-12-24T17:17:41.383Z,4.13
2022-12-24T17:20:12.463Z,3.89
2022-12-24T17:22:50.957Z,3.93
2022-12-24T17:25:28.501Z,3.80
2022-12-24T17:28:08.605Z,3.67
2022-12-24T17:30:41.837Z,3.46
2022-12-24T17:33:14.942Z,3.27
2022-12-24T17:35:52.554Z,3.28
2022-12-24T17:38:30.039Z,3.43
2022-12-24T17:41:07.182Z,3.31
2022-12-24T17:43:36.868Z,3.44
2022-12-24T17:46:18.290Z,3.50
2022-12-24T17:48:51.949Z,3.53
2022-12-24T17:51:27.713Z,3.64
2022-12-24T17:53:58.762Z,3.80
2022-12-24T17:56:38.573Z,3.66
2022-12-24T17:59:11.197Z,3.36
2022-12-24T18:01:43.784Z,3.11
2022-12-24T18:04:17.119Z,3.09
2022-12-24T18:06:49.544Z,3.03
2022-12-24T18:09:21.587Z,3.05
2022-12-24T18:11:52.993Z,3.07
2022-12-24T18:14:30.845Z,3.11
2022-12-24T18:17:01.490Z,3.35
2022-12-24T18:19:37.519Z,3.64
2022-12-24T18:22:08.499Z,3.59
2022-12-24T18:24:39.659Z,3.32
2022-12-24T18:27:12.784Z,3.24
2022-12-24T18:29:44.697Z,3.41
2022-12-24T18:32:21.230Z,3.48
2022-12-24T18:35:02.712Z,3.35
2022-12-24T18:37:33.133Z,3.37
2022-12-24T18:40:10.566Z,3.31
2022-12-24T18:42:44.092Z,3.14
2022-12-24T18:45:46.543Z,3.24
2022-12-24T18:48:19.905Z,3.15
2022-12-24T18:50:59.744Z,3.14
2022-12-24T18:53:41.189Z,3.22
2022-12-24T18:56:23.107Z,3.43
2022-12-24T18:58:57.386Z,3.59
2022-12-24T19:01:33.037Z,3.67
2022-12-24T19:04:08.913Z,3.72
2022-12-24T19:06:39.491Z,3.52
2022-12-24T19:09:13.006Z,3.42
2022-12-24T19:11:43.269Z,3.39
2022-12-24T19:14:20.799Z,3.25
2022-12-24T19:16:52.232Z,3.60
2022-12-24T19:19:28.673Z,3.42
2022-12-24T19:22:24.746Z,3.37
2022-12-24T19:24:58.555Z,3.56
2022-12-24T19:27:30.343Z,3.56
2022-12-24T19:30:05.677Z,3.23
2022-12-24T19:32:37.169Z,3.56
2022-12-24T19:35:12.340Z,3.76
2022-12-24T19:37:42.479Z,3.60
2022-12-24T19:40:17.461Z,3.65
2022-12-24T19:43:12.721Z,3.64
2022-12-24T19:46:00.161Z,3.56
2022-12-24T19:48:37.034Z,3.52
2022-12-24T19:51:14.272Z,3.52
2022-12-24T19:53:44.563Z,3.47
2022-12-24T19:56:24.353Z,3.73
2022-12-24T19:59:02.807Z,4.23
2022-12-24T20:01:37.753Z,3.83
2022-12-24T20:04:36.518Z,3.63
2022-12-24T20:07:18.043Z,3.49
2022-12-24T20:09:50.040Z,3.46
2022-12-24T20:12:20.257Z,3.43
2022-12-24T20:14:51.859Z,3.43
2022-12-24T20:17:25.186Z,3.47
2022-12-24T20:19:58.593Z,3.52
2022-12-24T20:22:31.365Z,3.41
2022-12-24T20:25:05.480Z,3.50
2022-12-24T20:27:37.675Z,3.37
2022-12-24T20:30:13.267Z,3.33
2022-12-24T20:32:45.752Z,3.43
2022-12-24T20:35:19.695Z,3.46
2022-12-24T20:37:50.238Z,3.51
2022-12-24T20:40:28.225Z,3.53
2022-12-24T20:43:03.037Z,3.49
2022-12-24T20:45:38.457Z,3.28
2022-12-24T20:48:10.456Z,3.51
2022-12-24T20:50:51.821Z,3.62
2022-12-24T20:53:23.681Z,3.96
2022-12-24T20:55:56.718Z,4.01
2022-12-24T20:58:28.377Z,3.78
2022-12-24T21:01:20.938Z,3.82
2022-12-24T21:03:54.282Z,3.85
2022-12-24T21:06:36.263Z,3.73
2022-12-24T21:09:09.291Z,4.00
2022-12-24T21:11:57.165Z,4.14
2022-12-24T21:14:28.892Z,4.13
2022-12-24T21:17:15.681Z,3.90
2022-12-24T21:19:49.653Z,3.91
2022-12-24T21:22:23.810Z,3.85
2022-12-24T21:24:54.200Z,3.79
2022-12-24T21:27:24.398Z,3.96
2022-12-24T21:29:58.307Z,4.35
2022-12-24T21:32:33.734Z,4.14
2022-12-24T21:35:04.914Z,3.87
2022-12-24T21:37:36.985Z,3.77
2022-12-24T21:40:13.661Z,3.89
2022-12-24T21:42:52.901Z,3.96
2022-12-24T21:45:44.987Z,3.87
2022-12-24T21:48:40.234Z,3.99
2022-12-24T21:51:17.180Z,4.14
2022-12-24T21:54:11.081Z,4.06
2022-12-24T21:57:01.905Z,4.01
2022-12-24T21:59:33.166Z,4.05
2022-12-24T22:02:04.517Z,4.02
2022-12-24T22:04:40.708Z,4.08
2022-12-24T22:10:57.544Z,4.02
2022-12-24T22:13:31.392Z,4.01
2022-12-24T22:16:04.321Z,4.04
2022-12-24T22:18:36.114Z,4.09
2022-12-24T22:21:15.134Z,4.04
2022-12-24T22:23:52.038Z,3.87
2022-12-24T22:26:31.977Z,3.84
2022-12-24T22:29:05.100Z,3.87
2022-12-24T22:31:48.932Z,3.91
2022-12-24T22:34:32.831Z,3.89
2022-12-24T22:37:07.014Z,3.85
2022-12-24T22:39:47.429Z,3.92
2022-12-24T22:42:27.162Z,3.87
2022-12-24T22:45:03.257Z,3.83
2022-12-24T22:47:34.606Z,3.80
2022-12-24T22:50:15.445Z,3.81
2022-12-24T22:52:47.012Z,3.85
2022-12-24T22:55:21.218Z,3.83
2022-12-24T22:57:51.262Z,3.86
2022-12-24T23:00:39.424Z,3.70
2022-12-24T23:03:16.045Z,3.97
2022-12-24T23:05:50.623Z,3.98
2022-12-24T23:08:29.938Z,3.96
2022-12-24T23:11:19.383Z,3.97
2022-12-24T23:14:16.935Z,3.96
2022-12-24T23:16:50.213Z,3.92
2022-12-24T23:19:27.034Z,3.95
2022-12-24T23:21:57.271Z,3.94
2022-12-24T23:24:30.561Z,3.95
2022-12-24T23:27:03.084Z,3.94
2022-12-24T23:29:34.501Z,3.92
2022-12-24T23:32:30.547Z,3.95
2022-12-24T23:34:59.588Z,3.93
2022-12-24T23:37:35.420Z,3.94
2022-12-24T23:40:13.754Z,4.00
2022-12-24T23:42:48.957Z,3.98
2022-12-24T23:45:27.853Z,3.99
2022-12-24T23:47:58.021Z,3.92
2022-12-24T23:50:32.227Z,3.95
2022-12-24T23:53:05.614Z,3.95
2022-12-24T23:55:50.870Z,3.91
2022-12-24T23:58:28.717Z,3.81
